createdAt,value
2023-03-10T00:02:02.299Z,320.74
2023-03-10T00:07:02.244Z,315.85
2023-03-10T00:12:02.122Z,313.17
2023-03-10T00:17:02.064Z,310.82
2023-03-10T00:22:02.004Z,313.76
2023-03-10T00:27:01.925Z,317.67
2023-03-10T00:32:01.854Z,318.89
2023-03-10T00:37:01.810Z,319.81
2023-03-10T00:42:01.817Z,324.50
2023-03-10T00:47:01.696Z,324.18
2023-03-10T00:52:01.585Z,327.38
2023-03-10T00:57:01.538Z,331.30
2023-03-10T01:02:01.692Z,326.42
2023-03-10T01:07:23.827Z,323.24
2023-03-10T01:12:16.193Z,321.05
2023-03-10T01:17:16.151Z,323.55
2023-03-10T01:22:16.089Z,323.55
2023-03-10T01:27:16.019Z,325.14
2023-03-10T01:32:15.967Z,327.71
2023-03-10T01:37:15.882Z,328.03
2023-03-10T01:42:15.819Z,325.77
2023-03-10T01:47:15.738Z,327.06
2023-03-10T01:52:16.673Z,328.35
2023-03-10T01:57:15.593Z,327.71
2023-03-10T02:02:15.599Z,325.14
2023-03-10T02:07:15.445Z,324.18
2023-03-10T02:12:15.425Z,325.77
2023-03-10T02:17:15.355Z,328.03
2023-03-10T02:22:15.276Z,328.68
2023-03-10T02:27:15.235Z,322.92
2023-03-10T02:32:15.193Z,321.98
2023-03-10T02:37:15.086Z,320.43
2023-03-10T02:42:15.040Z,312.58
2023-03-10T02:47:14.935Z,310.53
2023-03-10T02:52:14.887Z,307.37
2023-03-10T02:57:14.835Z,307.37
2023-03-10T03:02:14.747Z,302.88
2023-03-10T03:07:14.656Z,302.05
2023-03-10T03:12:14.617Z,299.60
2023-03-10T03:17:14.540Z,296.38
2023-03-10T03:22:15.410Z,298.25
2023-03-10T03:27:14.401Z,300.95
2023-03-10T03:32:14.405Z,301.50
2023-03-10T03:37:14.275Z,301.77
2023-03-10T03:42:14.222Z,296.91
2023-03-10T03:47:14.138Z,294.28
2023-03-10T03:52:14.072Z,299.60
2023-03-10T03:57:14.010Z,297.71
2023-03-10T04:02:13.986Z,296.91
2023-03-10T04:07:13.864Z,299.05
2023-03-10T04:12:13.816Z,304.27
2023-03-10T04:17:13.736Z,303.71
2023-03-10T04:22:13.729Z,303.99
2023-03-10T04:27:13.612Z,297.45
2023-03-10T04:32:13.595Z,300.14
2023-03-10T04:37:13.510Z,301.77
2023-03-10T04:42:13.425Z,304.83
2023-03-10T04:47:13.323Z,308.22
2023-03-10T04:52:13.293Z,303.99
2023-03-10T04:57:13.209Z,298.79
2023-03-10T05:02:13.166Z,295.07
2023-03-10T05:07:13.137Z,290.16
2023-03-10T05:12:13.023Z,285.91
2023-03-10T05:17:24.118Z,282.26
2023-03-10T05:22:17.459Z,275.24
2023-03-10T05:27:16.452Z,273.88
2023-03-10T05:32:16.453Z,276.16
2023-03-10T05:37:16.313Z,277.54
2023-03-10T05:42:16.243Z,281.79
2023-03-10T05:47:16.179Z,283.95
2023-03-10T05:52:16.072Z,288.15
2023-03-10T05:57:16.042Z,292.72
2023-03-10T06:02:15.984Z,296.91
2023-03-10T06:07:15.926Z,295.33
2023-03-10T06:12:15.829Z,298.25
2023-03-10T06:17:17.508Z,299.87
2023-03-10T06:22:15.708Z,297.98
2023-03-10T06:27:15.666Z,292.72
2023-03-10T06:32:15.605Z,285.18
2023-03-10T06:37:15.533Z,284.20
2023-03-10T06:42:15.449Z,277.54
2023-03-10T06:47:16.084Z,277.54
2023-03-10T06:52:15.318Z,278.01
2023-03-10T06:57:15.368Z,283.23
2023-03-10T07:02:15.188Z,285.18
2023-03-10T07:07:15.128Z,287.40
2023-03-10T07:12:15.061Z,290.42
2023-03-10T07:17:15.014Z,284.93
2023-03-10T07:22:14.920Z,278.47
2023-03-10T07:27:14.831Z,276.62
2023-03-10T07:32:14.809Z,284.44
2023-03-10T07:37:14.723Z,287.40
2023-03-10T07:42:14.636Z,290.42
2023-03-10T07:47:14.603Z,287.65
2023-03-10T07:52:14.522Z,284.44
2023-03-10T07:57:14.484Z,276.39
2023-03-10T08:02:14.362Z,267.26
2023-03-10T08:07:14.307Z,258.92
2023-03-10T08:12:14.230Z,252.42
2023-03-10T08:17:14.226Z,243.17
2023-03-10T08:22:14.117Z,240.70
2023-03-10T08:27:14.379Z,241.22
2023-03-10T08:32:14.007Z,237.26
2023-03-10T08:37:13.940Z,234.07
2023-03-10T08:42:13.843Z,236.75
2023-03-10T08:47:13.794Z,239.48
2023-03-10T08:52:13.701Z,244.06
2023-03-10T08:57:13.652Z,252.23
2023-03-10T09:02:13.684Z,245.14
2023-03-10T09:07:13.539Z,241.22
2023-03-10T09:12:13.445Z,244.60
2023-03-10T09:17:13.389Z,250.51
2023-03-10T09:22:13.313Z,253.38
2023-03-10T09:27:13.263Z,249.57
2023-03-10T09:32:13.271Z,249.95
2023-03-10T09:37:13.186Z,255.72
2023-03-10T09:42:13.340Z,261.57
2023-03-10T09:47:12.989Z,267.69
2023-03-10T09:52:12.923Z,263.23
2023-03-10T09:57:12.855Z,260.95
2023-03-10T10:02:12.789Z,256.32
2023-03-10T10:07:12.750Z,257.91
2023-03-10T10:12:12.685Z,263.65
2023-03-10T10:17:12.653Z,271.41
2023-03-10T10:22:12.484Z,277.54
2023-03-10T10:27:12.445Z,279.65
2023-03-10T10:32:12.475Z,279.18
2023-03-10T10:37:14.070Z,273.88
2023-03-10T10:42:12.245Z,272.08
2023-03-10T10:47:12.189Z,266.40
2023-03-10T10:52:12.123Z,260.75
2023-03-10T10:57:12.100Z,257.31
2023-03-10T11:02:12.027Z,260.95
2023-03-10T11:07:11.969Z,260.34
2023-03-10T11:12:11.837Z,258.11
2023-03-10T11:17:11.807Z,263.86
2023-03-10T11:22:11.726Z,265.12
2023-03-10T11:27:11.672Z,268.77
2023-03-10T11:32:11.601Z,269.21
2023-03-10T11:37:11.563Z,275.47
2023-03-10T11:42:11.475Z,278.94
2023-03-10T11:47:11.382Z,280.12
2023-03-10T11:52:11.313Z,280.12
2023-03-10T11:57:11.261Z,279.65
2023-03-10T12:02:11.216Z,285.42
2023-03-10T12:07:11.138Z,290.93
2023-03-10T12:12:11.050Z,295.86
2023-03-10T12:17:11.019Z,301.23
2023-03-10T12:22:10.930Z,297.45
2023-03-10T12:27:10.849Z,292.21
2023-03-10T12:32:10.843Z,292.21
2023-03-10T12:37:10.764Z,294.28
2023-03-10T12:42:10.664Z,299.33
2023-03-10T12:47:10.655Z,298.52
2023-03-10T12:52:10.543Z,298.79
2023-03-10T12:57:10.465Z,296.65
2023-03-10T13:02:10.433Z,293.24
2023-03-10T13:07:10.338Z,290.93
2023-03-10T13:12:10.269Z,285.67
2023-03-10T13:17:10.236Z,284.20
2023-03-10T13:22:10.206Z,282.75
2023-03-10T13:27:10.073Z,282.02
2023-03-10T13:32:10.192Z,279.88
2023-03-10T13:37:09.971Z,279.18
2023-03-10T13:42:09.887Z,281.55
2023-03-10T13:47:09.826Z,279.88
2023-03-10T13:52:09.775Z,277.31
2023-03-10T13:57:09.674Z,277.77
2023-03-10T14:02:09.635Z,279.88
2023-03-10T14:07:09.547Z,278.94
2023-03-10T14:12:09.509Z,279.41
2023-03-10T14:17:09.453Z,284.20
2023-03-10T14:22:09.333Z,289.66
2023-03-10T14:27:09.264Z,299.33
2023-03-10T14:32:09.220Z,304.83
2023-03-10T14:37:09.106Z,309.66
2023-03-10T14:42:09.267Z,313.76
2023-03-10T14:47:09.325Z,321.98
2023-03-10T14:52:08.919Z,324.82
2023-03-10T14:57:08.859Z,327.71
2023-03-10T15:02:08.826Z,328.68
2023-03-10T15:07:08.740Z,331.64
2023-03-10T15:12:08.683Z,334.65
2023-03-10T15:17:08.620Z,335.32
2023-03-10T15:22:08.545Z,339.44
2023-03-10T15:27:08.469Z,346.53
2023-03-10T15:32:08.439Z,356.58
2023-03-10T15:37:08.318Z,360.85
2023-03-10T15:42:08.279Z,362.82
2023-03-10T15:47:08.275Z,364.02
2023-03-10T15:52:08.168Z,366.83
2023-03-10T15:57:09.793Z,373.44
2023-03-10T16:02:08.130Z,375.98
2023-03-10T16:07:07.952Z,375.13
2023-03-10T16:12:07.913Z,373.44
2023-03-10T16:17:07.815Z,375.55
2023-03-10T16:22:07.784Z,373.02
2023-03-10T16:27:07.679Z,378.83
2023-03-10T16:32:07.618Z,380.76
2023-03-10T16:37:07.544Z,379.69
2023-03-10T16:42:07.526Z,380.11
2023-03-10T16:47:07.530Z,380.33
2023-03-10T16:52:07.355Z,380.76
2023-03-10T16:57:07.286Z,385.77
2023-03-10T17:02:07.253Z,387.77
2023-03-10T17:07:07.198Z,391.59
2023-03-10T17:12:07.121Z,392.73
2023-03-10T17:17:08.039Z,395.73
2023-03-10T17:22:06.994Z,395.50
2023-03-10T17:27:06.923Z,391.14
2023-03-10T17:32:06.838Z,390.91
2023-03-10T17:37:06.788Z,394.80
2023-03-10T17:42:06.700Z,399.24
2023-03-10T17:47:06.639Z,413.95
2023-03-10T17:52:06.581Z,428.69
2023-03-10T17:57:06.529Z,443.64
2023-03-10T18:02:06.476Z,459.98
2023-03-10T18:07:06.390Z,463.45
2023-03-10T18:12:06.303Z,469.91
2023-03-10T18:17:06.269Z,477.57
2023-03-10T18:22:06.188Z,484.08
2023-03-10T18:27:06.136Z,499.13
2023-03-10T18:32:06.066Z,514.36
2023-03-10T18:37:06.003Z,523.95
2023-03-10T18:42:06.004Z,532.22
2023-03-10T18:47:05.868Z,538.60
2023-03-10T18:52:05.799Z,551.37
2023-03-10T18:57:05.755Z,561.47
2023-03-10T19:02:05.681Z,572.92
2023-03-10T19:07:06.446Z,576.84
2023-03-10T19:12:05.555Z,587.90
2023-03-10T19:17:05.633Z,593.07
2023-03-10T19:22:05.409Z,591.51
2023-03-10T19:27:06.168Z,590.48
2023-03-10T19:32:05.281Z,596.22
2023-03-10T19:37:05.251Z,614.14
2023-03-10T19:42:05.146Z,617.51
2023-03-10T19:47:05.262Z,619.78
2023-03-10T19:52:05.034Z,619.78
2023-03-10T19:57:05.010Z,625.53
2023-03-10T20:02:04.895Z,622.65
2023-03-10T20:07:04.848Z,629.62
2023-03-10T20:12:04.779Z,631.39
2023-03-10T20:17:04.744Z,642.83
2023-03-10T20:22:04.683Z,639.17
2023-03-10T20:27:04.633Z,643.44
2023-03-10T20:32:05.527Z,646.53
2023-03-10T20:37:04.472Z,644.05
2023-03-10T20:42:04.402Z,645.29
2023-03-10T20:47:04.359Z,642.21
2023-03-10T20:52:04.451Z,642.21
2023-03-10T20:57:04.202Z,642.83
2023-03-10T21:02:04.132Z,643.44
2023-03-10T21:07:04.121Z,637.96
2023-03-10T21:12:04.033Z,642.21
2023-03-10T21:17:04.049Z,651.52
2023-03-10T21:22:03.882Z,652.15
2023-03-10T21:27:03.831Z,657.24
2023-03-10T21:32:03.764Z,650.89
2023-03-10T21:37:03.697Z,650.89
2023-03-10T21:42:03.637Z,653.42
2023-03-10T21:47:03.584Z,647.77
2023-03-10T21:52:03.496Z,653.42
2023-03-10T21:57:03.442Z,662.40
2023-03-10T22:02:03.410Z,658.52
2023-03-10T22:07:03.300Z,662.40
2023-03-10T22:12:03.235Z,666.99
2023-03-10T22:17:03.169Z,672.98
2023-03-10T22:22:03.096Z,673.65
2023-03-10T22:27:03.094Z,675.00
2023-03-10T22:32:02.983Z,675.00
2023-03-10T22:37:02.924Z,670.97
2023-03-10T22:42:02.860Z,674.33
2023-03-10T22:47:02.836Z,670.30
2023-03-10T22:52:02.713Z,677.03
2023-03-10T22:57:02.661Z,680.45
2023-03-10T23:02:02.648Z,686.69
2023-03-10T23:07:02.544Z,691.62
2023-03-10T23:12:02.460Z,683.90
2023-03-10T23:17:02.423Z,680.45
2023-03-10T23:22:02.340Z,679.08
2023-03-10T23:27:02.277Z,683.21
2023-03-10T23:32:02.200Z,683.21
2023-03-10T23:37:02.136Z,681.83
2023-03-10T23:42:02.074Z,685.29
2023-03-10T23:47:02.033Z,683.21
2023-03-10T23:52:01.941Z,675.00
2023-03-10T23:57:01.936Z,678.40
